Time;durP1;ratioP1;P1;durP2;ratioP2;P2;SDS_P1;SDS_P2;PMS_P1;PMS_P2;Temp;Humidity;BMP_temperature;BMP_pressure;BME280_temperature;BME280_humidity;BME280_pressure;Samples;Min_cycle;Max_cycle;Signal;HPM_P1;HPM_P2
2023/04/07 00:02:05;;;;;;;;;;;;;;;10.89;85.35;100101.22;5050854;28;19944;-62
2023/04/07 00:04:31;;;;;;;;;;;;;;;10.92;85.19;100100.25;5056944;28;19946;-62
2023/04/07 00:06:56;;;;;;;;;;;;;;;10.91;85.33;100101.16;5070592;28;19950;-62
2023/04/07 00:09:21;;;;;;;;;;;;;;;10.85;84.93;100094.25;5068693;28;19984;-62
2023/04/07 00:11:47;;;;;;;;;;;;;;;10.87;85.82;100096.88;5058451;28;19919;-62
2023/04/07 00:14:13;;;;;;;;;;;;;;;10.79;86.40;100093.59;5071074;28;19916;-61
2023/04/07 00:16:38;;;;;;;;;;;;;;;10.69;87.29;100085.03;5060540;28;19933;-61
2023/04/07 00:19:03;;;;;;;;;;;;;;;10.72;87.75;100087.59;5050672;28;19948;-61
2023/04/07 00:21:28;;;;;;;;;;;;;;;10.68;87.95;100080.63;5052472;28;20045;-61
2023/04/07 00:23:54;;;;;;;;;;;;;;;10.68;88.41;100079.75;5070233;28;20689;-61
2023/04/07 00:26:19;;;;;;;;;;;;;;;10.68;88.39;100085.06;5070443;28;19959;-61
2023/04/07 00:28:45;;;;;;;;;;;;;;;10.65;89.73;100086.03;5062436;28;20492;-61
2023/04/07 00:31:10;;;;;;;;;;;;;;;10.69;89.23;100070.88;5069969;28;19939;-61
2023/04/07 00:33:35;;;;;;;;;;;;;;;10.61;89.38;100074.63;5068108;28;20015;-61
2023/04/07 00:36:01;;;;;;;;;;;;;;;10.56;90.06;100065.91;5057219;28;19935;-61
2023/04/07 00:38:26;;;;;;;;;;;;;;;10.53;90.80;100066.03;5070202;28;19934;-62
2023/04/07 00:40:58;;;;;;;;;;;;;;;10.56;91.15;100060.59;5070719;28;19916;-62
2023/04/07 00:43:24;;;;;;;;;;;;;;;10.51;90.74;100057.22;5067432;28;19934;-62
2023/04/07 00:45:49;;;;;;;;;;;;;;;10.47;90.94;100052.06;5070674;28;20022;-62
2023/04/07 00:48:15;;;;;;;;;;;;;;;10.45;91.58;100046.78;5070230;28;19927;-62
2023/04/07 00:50:40;;;;;;;;;;;;;;;10.48;91.56;100046.69;5053286;28;19993;-62
2023/04/07 00:53:05;;;;;;;;;;;;;;;10.48;90.59;100045.81;5051033;28;20380;-62
2023/04/07 00:55:31;;;;;;;;;;;;;;;10.51;91.04;100040.38;5058485;28;19964;-62
2023/04/07 00:57:56;;;;;;;;;;;;;;;10.49;90.43;100034.28;5069738;28;19963;-62
2023/04/07 01:00:21;;;;;;;;;;;;;;;10.42;91.20;100030.94;5068894;28;19923;-62
2023/04/07 01:02:57;;;;;;;;;;;;;;;10.50;90.78;100028.00;5067188;28;20005;-61
2023/04/07 01:05:41;;;;;;;;;;;;;;;10.51;90.23;100021.75;5049384;28;19917;-61
2023/04/07 01:08:06;;;;;;;;;;;;;;;10.47;90.10;100014.81;5051727;28;19947;-61
2023/04/07 01:10:55;;;;;;;;;;;;;;;10.47;91.60;100023.69;5069053;28;20344;-61
2023/04/07 01:13:29;;;;;;;;;;;;;;;10.47;91.75;100017.47;5015077;28;19990;-61
2023/04/07 01:15:57;;;;;;;;;;;;;;;10.49;90.40;100020.97;5050045;28;19926;-61
2023/04/07 01:18:29;;;;;;;;;;;;;;;10.51;91.29;100012.00;5050581;28;20449;-61
2023/04/07 01:20:59;;;;;;;;;;;;;;;10.55;90.61;100016.31;5051299;28;19935;-61
2023/04/07 01:24:03;;;;;;;;;;;;;;;10.58;90.42;100005.56;5050359;28;19935;-61
2023/04/07 01:26:29;;;;;;;;;;;;;;;10.56;90.12;100004.75;5007192;28;20002;-61
2023/04/07 01:29:03;;;;;;;;;;;;;;;10.53;89.27;100007.50;5007711;28;19922;-61
2023/04/07 01:31:29;;;;;;;;;;;;;;;10.50;89.26;100006.75;5031491;28;20016;-61
2023/04/07 01:33:56;;;;;;;;;;;;;;;10.45;89.48;100014.88;5056616;28;19961;-61
2023/04/07 01:36:22;;;;;;;;;;;;;;;10.46;89.53;100013.94;5064727;28;20426;-61
2023/04/07 01:38:48;;;;;;;;;;;;;;;10.46;89.53;100002.47;5050149;28;20000;-62
2023/04/07 01:41:14;;;;;;;;;;;;;;;10.40;88.95;99995.53;5059917;28;20655;-61
2023/04/07 01:43:40;;;;;;;;;;;;;;;10.38;88.99;100007.13;5059404;28;19935;-61
2023/04/07 01:46:06;;;;;;;;;;;;;;;10.42;89.68;100008.78;5049712;28;19927;-61
2023/04/07 01:48:32;;;;;;;;;;;;;;;10.38;89.74;100008.00;5056061;28;20013;-61
2023/04/07 01:50:58;;;;;;;;;;;;;;;10.41;89.47;100007.91;5055487;28;19959;-61
2023/04/07 01:53:24;;;;;;;;;;;;;;;10.46;89.94;100011.28;5049950;28;19991;-61
2023/04/07 01:55:51;;;;;;;;;;;;;;;10.48;90.01;100003.25;5056107;28;19934;-62
2023/04/07 01:58:16;;;;;;;;;;;;;;;10.53;90.09;100002.19;5050005;28;19936;-61
2023/04/07 02:00:42;;;;;;;;;;;;;;;10.53;89.54;100006.63;5049639;28;19943;-62
2023/04/07 02:03:19;;;;;;;;;;;;;;;10.49;89.20;99995.22;5051860;28;19996;-62
2023/04/07 02:05:45;;;;;;;;;;;;;;;10.41;88.73;100002.59;5063771;28;20005;-61
2023/04/07 02:08:10;;;;;;;;;;;;;;;10.37;89.29;100000.97;5061459;28;20411;-61
2023/04/07 02:10:37;;;;;;;;;;;;;;;10.43;88.63;100000.75;5062921;28;19930;-61
2023/04/07 02:13:03;;;;;;;;;;;;;;;10.43;88.55;99999.88;5063240;28;19988;-61
2023/04/07 02:15:30;;;;;;;;;;;;;;;10.40;89.21;99995.53;5065139;28;19926;-61
2023/04/07 02:17:55;;;;;;;;;;;;;;;10.47;89.09;99997.09;5049030;28;20453;-61
2023/04/07 02:20:21;;;;;;;;;;;;;;;10.52;89.41;99986.28;5048776;28;19931;-61
2023/04/07 02:22:47;;;;;;;;;;;;;;;10.56;88.36;99995.88;5051894;28;19916;-61
2023/04/07 02:25:23;;;;;;;;;;;;;;;10.59;89.08;99988.69;5063453;28;19933;-61
2023/04/07 02:27:48;;;;;;;;;;;;;;;10.62;88.90;99980.59;5068776;28;20025;-61
2023/04/07 02:30:14;;;;;;;;;;;;;;;10.60;88.73;99977.16;5069371;28;19946;-61
2023/04/07 02:32:40;;;;;;;;;;;;;;;10.61;88.24;99986.84;5052740;28;20419;-61
2023/04/07 02:35:05;;;;;;;;;;;;;;;10.61;88.41;99983.31;5051700;28;19941;-61
2023/04/07 02:37:30;;;;;;;;;;;;;;;10.59;87.92;99977.19;5050005;28;19960;-61
2023/04/07 02:39:56;;;;;;;;;;;;;;;10.59;88.41;99986.03;5056795;28;20014;-61
2023/04/07 02:42:21;;;;;;;;;;;;;;;10.58;88.36;99978.09;5059331;28;20317;-61
2023/04/07 02:44:46;;;;;;;;;;;;;;;10.60;87.80;99969.16;5066266;28;19932;-61
2023/04/07 02:47:11;;;;;;;;;;;;;;;10.54;87.69;99969.34;5054472;28;20392;-61
2023/04/07 02:49:37;;;;;;;;;;;;;;;10.56;86.56;99969.28;5070795;28;19981;-61
2023/04/07 02:52:02;;;;;;;;;;;;;;;10.56;86.44;99963.97;5072061;28;19917;-61
2023/04/07 02:54:27;;;;;;;;;;;;;;;10.57;86.87;99965.75;4646270;28;20666;-62
2023/04/07 02:56:53;;;;;;;;;;;;;;;10.52;87.50;99965.91;5052999;28;19928;-62
2023/04/07 02:59:18;;;;;;;;;;;;;;;10.50;87.01;99964.19;5053861;28;19928;-62
2023/04/07 03:01:43;;;;;;;;;;;;;;;10.48;86.35;99956.28;5055237;28;20319;-62
2023/04/07 03:04:09;;;;;;;;;;;;;;;10.49;87.20;99952.69;5053811;28;19970;-62
2023/04/07 03:06:34;;;;;;;;;;;;;;;10.48;87.73;99948.28;5063071;28;19949;-61
2023/04/07 03:08:59;;;;;;;;;;;;;;;10.44;87.47;99938.66;5052928;28;19940;-61
2023/04/07 03:11:25;;;;;;;;;;;;;;;10.40;87.76;99938.81;5057780;28;19936;-61
2023/04/07 03:13:50;;;;;;;;;;;;;;;10.34;87.70;99944.34;5073071;28;19943;-62
2023/04/07 03:16:15;;;;;;;;;;;;;;;10.26;87.95;99949.91;5072726;28;19973;-61
2023/04/07 03:18:41;;;;;;;;;;;;;;;10.18;88.80;99957.25;5071775;28;19932;-61
2023/04/07 03:21:06;;;;;;;;;;;;;;;10.12;88.79;99965.44;5070557;28;19986;-61
2023/04/07 03:23:31;;;;;;;;;;;;;;;10.18;88.81;99954.59;5072747;28;20331;-62
2023/04/07 03:25:57;;;;;;;;;;;;;;;10.18;89.61;99951.94;5068891;28;19927;-62
2023/04/07 03:28:22;;;;;;;;;;;;;;;10.22;89.58;99953.59;5072593;28;19936;-62
2023/04/07 03:30:47;;;;;;;;;;;;;;;10.27;89.01;99956.97;5071865;28;19986;-62
2023/04/07 03:33:13;;;;;;;;;;;;;;;10.28;88.58;99952.53;5072322;28;19951;-62
2023/04/07 03:35:38;;;;;;;;;;;;;;;10.30;87.65;99954.22;5056311;28;19982;-62
2023/04/07 03:38:03;;;;;;;;;;;;;;;10.32;87.99;99955.03;5051407;28;19971;-62
2023/04/07 03:40:28;;;;;;;;;;;;;;;10.35;87.26;99954.94;5066099;28;19930;-61
2023/04/07 03:42:54;;;;;;;;;;;;;;;10.35;86.89;99954.06;5072210;28;19981;-61
2023/04/07 03:45:19;;;;;;;;;;;;;;;10.39;86.72;99961.88;5070661;28;19985;-62
2023/04/07 03:47:45;;;;;;;;;;;;;;;10.42;85.91;99959.13;5054219;28;20002;-62
2023/04/07 03:50:10;;;;;;;;;;;;;;;10.43;86.76;99952.88;5052096;28;19927;-61
2023/04/07 03:52:35;;;;;;;;;;;;;;;10.47;85.95;99966.97;5061039;28;20011;-61
2023/04/07 03:55:01;;;;;;;;;;;;;;;10.47;86.27;99957.19;5072166;28;19961;-61
2023/04/07 03:57:26;;;;;;;;;;;;;;;10.50;85.75;99956.22;5069867;28;19942;-62
2023/04/07 03:59:51;;;;;;;;;;;;;;;10.51;86.17;99956.16;5070005;28;19942;-61
2023/04/07 04:02:17;;;;;;;;;;;;;;;10.49;85.42;99952.69;5070898;28;19937;-61
2023/04/07 04:04:42;;;;;;;;;;;;;;;10.49;85.96;99947.34;5066695;28;20402;-62
2023/04/07 04:07:07;;;;;;;;;;;;;;;10.47;85.56;99946.56;5071868;28;20438;-62
2023/04/07 04:09:33;;;;;;;;;;;;;;;10.45;85.32;99951.06;5068183;28;19931;-61
2023/04/07 04:11:58;;;;;;;;;;;;;;;10.48;84.18;99953.59;5070041;28;19937;-61
2023/04/07 04:14:23;;;;;;;;;;;;;;;10.50;84.05;99946.47;5070650;28;19920;-61
2023/04/07 04:16:48;;;;;;;;;;;;;;;10.51;84.97;99950.84;5059231;28;19989;-61
2023/04/07 04:19:14;;;;;;;;;;;;;;;10.53;85.05;99943.69;5050774;28;20630;-61
2023/04/07 04:21:39;;;;;;;;;;;;;;;10.54;84.17;99949.88;5057504;28;19992;-61
2023/04/07 04:24:04;;;;;;;;;;;;;;;10.55;84.74;99940.97;5051310;28;19947;-61
2023/04/07 04:26:29;;;;;;;;;;;;;;;10.54;84.01;99948.06;5051568;28;19954;-62
2023/04/07 04:28:55;;;;;;;;;;;;;;;10.54;85.17;99953.41;5050407;28;19929;-61
2023/04/07 04:31:20;;;;;;;;;;;;;;;10.55;84.26;99943.63;5059261;28;19978;-62
2023/04/07 04:33:45;;;;;;;;;;;;;;;10.55;84.43;99941.84;5050090;28;19950;-61
2023/04/07 04:36:11;;;;;;;;;;;;;;;10.54;84.13;99944.56;5050458;28;19948;-61
2023/04/07 04:38:36;;;;;;;;;;;;;;;10.48;84.87;99944.75;5052468;28;19943;-61
2023/04/07 04:41:01;;;;;;;;;;;;;;;10.46;84.83;99941.31;5051129;28;20017;-61
2023/04/07 04:43:26;;;;;;;;;;;;;;;10.45;84.79;99945.75;5066815;28;19936;-61
2023/04/07 04:45:52;;;;;;;;;;;;;;;10.45;84.95;99945.75;5070817;28;19954;-61
2023/04/07 04:48:17;;;;;;;;;;;;;;;10.47;85.21;99943.03;5068941;28;20054;-61
2023/04/07 04:50:42;;;;;;;;;;;;;;;10.46;86.50;99942.16;5053094;28;19933;-61
2023/04/07 04:53:09;;;;;;;;;;;;;;;10.44;86.70;99938.66;5052116;28;19913;-61
2023/04/07 04:55:34;;;;;;;;;;;;;;;10.44;87.20;99938.66;5050093;28;19974;-61
2023/04/07 04:58:00;;;;;;;;;;;;;;;10.42;86.63;99948.50;5052484;28;20613;-61
2023/04/07 05:00:25;;;;;;;;;;;;;;;10.44;88.09;99954.63;5051150;28;19951;-61
2023/04/07 05:02:50;;;;;;;;;;;;;;;10.41;87.59;99954.72;5052128;28;19931;-61
2023/04/07 05:05:16;;;;;;;;;;;;;;;10.40;88.34;99953.00;5057660;28;19986;-61
2023/04/07 05:07:41;;;;;;;;;;;;;;;10.39;88.76;99951.25;5056438;28;19997;-62
2023/04/07 05:10:07;;;;;;;;;;;;;;;10.40;89.52;99952.13;5048661;28;19930;-61
2023/04/07 05:12:32;;;;;;;;;;;;;;;10.39;90.08;99951.25;5060827;28;19927;-61
2023/04/07 05:14:57;;;;;;;;;;;;;;;10.35;90.39;99956.72;5069111;28;19932;-61
2023/04/07 05:17:22;;;;;;;;;;;;;;;10.35;90.87;99948.75;5065638;28;19935;-61
2023/04/07 05:19:48;;;;;;;;;;;;;;;10.34;91.19;99941.69;5069428;28;20041;-62
2023/04/07 05:22:13;;;;;;;;;;;;;;;10.40;91.16;99946.81;5066778;28;19947;-61
2023/04/07 05:24:38;;;;;;;;;;;;;;;10.45;91.32;99945.75;5070309;28;19959;-61
2023/04/07 05:27:03;;;;;;;;;;;;;;;10.51;90.21;99939.31;5069257;28;20271;-61
2023/04/07 05:29:29;;;;;;;;;;;;;;;10.54;91.42;99948.06;5069432;28;19928;-61
2023/04/07 05:31:54;;;;;;;;;;;;;;;10.63;91.07;99945.13;5058898;28;19942;-61
2023/04/07 05:34:19;;;;;;;;;;;;;;;10.70;90.43;99945.78;5049224;28;20358;-61
2023/04/07 05:36:45;;;;;;;;;;;;;;;10.77;90.19;99942.00;5051604;28;20369;-61
2023/04/07 05:39:10;;;;;;;;;;;;;;;10.86;89.19;99946.09;5048979;28;20319;-61
2023/04/07 05:41:36;;;;;;;;;;;;;;;10.92;89.34;99946.78;5053356;28;20348;-61
2023/04/07 05:44:01;;;;;;;;;;;;;;;10.99;88.89;99958.09;5061993;28;19931;-61
2023/04/07 05:46:28;;;;;;;;;;;;;;;11.04;88.04;99950.78;5069182;28;19980;-61
2023/04/07 05:48:53;;;;;;;;;;;;;;;11.08;88.27;99957.75;5066980;28;19932;-61
2023/04/07 05:51:18;;;;;;;;;;;;;;;11.13;87.97;99955.78;5069893;28;19940;-61
2023/04/07 05:53:43;;;;;;;;;;;;;;;11.14;87.96;99962.84;5069967;28;19936;-61
2023/04/07 05:56:09;;;;;;;;;;;;;;;11.14;88.33;99958.41;5065982;28;19959;-61
2023/04/07 05:58:34;;;;;;;;;;;;;;;11.13;87.99;99953.13;5069358;28;20307;-61
2023/04/07 06:00:59;;;;;;;;;;;;;;;11.13;87.84;99947.81;5065013;28;20285;-61
2023/04/07 06:03:24;;;;;;;;;;;;;;;11.14;88.57;99952.19;5062378;28;19973;-61
2023/04/07 06:05:50;;;;;;;;;;;;;;;11.18;88.54;99948.50;5069417;28;19950;-61
2023/04/07 06:08:15;;;;;;;;;;;;;;;11.18;87.66;99954.72;5054585;28;19980;-61
2023/04/07 06:10:40;;;;;;;;;;;;;;;11.20;86.97;99942.19;5049630;28;20646;-61
2023/04/07 06:13:06;;;;;;;;;;;;;;;11.26;87.13;99951.75;5060054;28;20649;-61
2023/04/07 06:15:31;;;;;;;;;;;;;;;11.30;86.17;99951.59;5049432;28;19930;-61
2023/04/07 06:17:57;;;;;;;;;;;;;;;11.27;86.13;99948.16;5049473;28;19941;-61
2023/04/07 06:20:23;;;;;;;;;;;;;;;11.34;85.51;99949.69;5049356;28;19963;-61
2023/04/07 06:22:48;;;;;;;;;;;;;;;11.35;85.35;99957.63;5054415;28;19985;-61
2023/04/07 06:25:13;;;;;;;;;;;;;;;11.40;85.58;99949.47;5074743;28;19916;-61
2023/04/07 06:27:39;;;;;;;;;;;;;;;11.44;85.79;99954.63;5092007;28;19954;-61
2023/04/07 06:30:04;;;;;;;;;;;;;;;11.53;85.59;99958.75;5075780;28;20329;-61
2023/04/07 06:32:30;;;;;;;;;;;;;;;11.63;85.48;99954.81;5064897;28;19937;-61
2023/04/07 06:34:55;;;;;;;;;;;;;;;11.72;85.25;99952.69;5071342;28;19935;-61
2023/04/07 06:37:23;;;;;;;;;;;;;;;11.83;85.78;99952.25;5077584;28;19933;-61
2023/04/07 06:39:49;;;;;;;;;;;;;;;11.96;84.56;99956.19;5081012;28;19931;-61
2023/04/07 06:42:14;;;;;;;;;;;;;;;12.04;84.46;99954.13;5074983;28;20532;-61
2023/04/07 06:44:39;;;;;;;;;;;;;;;12.16;83.44;99950.94;5077982;28;20017;-62
2023/04/07 06:47:05;;;;;;;;;;;;;;;12.33;82.22;99955.59;5065084;28;19994;-61
2023/04/07 06:49:30;;;;;;;;;;;;;;;12.49;80.25;99954.91;5080994;28;19920;-61
2023/04/07 06:51:55;;;;;;;;;;;;;;;12.48;76.43;99958.53;5070222;28;19968;-61
2023/04/07 06:54:21;;;;;;;;;;;;;;;12.53;76.05;99956.53;5068328;28;20038;-61
2023/04/07 06:56:46;;;;;;;;;;;;;;;12.63;76.20;99960.56;5075185;28;20011;-61
2023/04/07 06:59:11;;;;;;;;;;;;;;;12.73;75.96;99959.25;5072506;28;20435;-61
2023/04/07 07:01:37;;;;;;;;;;;;;;;12.86;76.16;99959.59;5085975;28;19936;-61
2023/04/07 07:04:02;;;;;;;;;;;;;;;12.99;76.38;99959.00;5077627;28;19941;-61
2023/04/07 07:06:27;;;;;;;;;;;;;;;13.06;75.91;99960.47;5080873;28;19944;-61
2023/04/07 07:08:53;;;;;;;;;;;;;;;13.09;75.84;99967.50;5086251;28;19923;-61
2023/04/07 07:11:18;;;;;;;;;;;;;;;13.02;75.34;99972.25;5074566;28;20652;-61
2023/04/07 07:13:44;;;;;;;;;;;;;;;12.94;76.27;99982.34;5060066;28;20386;-61
2023/04/07 07:16:11;;;;;;;;;;;;;;;13.00;76.21;99982.06;5075104;28;19997;-61
2023/04/07 07:18:36;;;;;;;;;;;;;;;13.07;76.04;99980.94;5074252;28;19944;-61
2023/04/07 07:21:02;;;;;;;;;;;;;;;13.13;76.26;99983.31;5057600;28;19913;-61
2023/04/07 07:23:27;;;;;;;;;;;;;;;13.08;76.72;99977.31;5055523;28;20375;-61
2023/04/07 07:25:52;;;;;;;;;;;;;;;13.14;76.78;99985.06;5064938;28;19973;-61
2023/04/07 07:28:18;;;;;;;;;;;;;;;13.15;76.46;99986.78;5074320;28;19959;-61
2023/04/07 07:30:43;;;;;;;;;;;;;;;13.12;76.87;99986.06;5070845;28;19946;-61
2023/04/07 07:33:08;;;;;;;;;;;;;;;13.11;77.11;99990.53;5053514;28;19936;-61
2023/04/07 07:35:36;;;;;;;;;;;;;;;13.10;77.01;99985.25;5060933;28;20022;-61
2023/04/07 07:38:01;;;;;;;;;;;;;;;13.14;78.06;99994.88;5051359;28;19938;-61
2023/04/07 07:40:26;;;;;;;;;;;;;;;13.07;78.66;99988.06;5049426;28;19930;-61
2023/04/07 07:42:52;;;;;;;;;;;;;;;13.06;79.05;99986.34;5064329;28;20359;-61
2023/04/07 07:45:18;;;;;;;;;;;;;;;13.02;79.06;99990.94;5069179;28;19930;-61
2023/04/07 07:47:43;;;;;;;;;;;;;;;13.02;80.21;99990.06;5065896;28;19955;-61
2023/04/07 07:50:09;;;;;;;;;;;;;;;12.96;81.90;99996.47;5069612;28;20359;-61
2023/04/07 07:52:35;;;;;;;;;;;;;;;12.92;83.04;99997.56;5065025;28;19954;-62
2023/04/07 07:55:00;;;;;;;;;;;;;;;12.84;84.50;99991.69;5069676;28;19969;-62
2023/04/07 07:57:26;;;;;;;;;;;;;;;12.90;84.98;100002.09;5067856;28;19942;-61
2023/04/07 07:59:52;;;;;;;;;;;;;;;13.04;85.51;99999.75;5044605;28;20620;-62
2023/04/07 08:02:17;;;;;;;;;;;;;;;13.16;84.89;100001.88;5056696;28;19972;-62
2023/04/07 08:04:42;;;;;;;;;;;;;;;13.12;83.14;100008.31;5068765;28;19978;-62
2023/04/07 08:07:08;;;;;;;;;;;;;;;13.06;84.34;100013.88;5064669;28;19952;-62
2023/04/07 08:09:33;;;;;;;;;;;;;;;13.38;84.52;100014.31;5069399;28;19972;-62
2023/04/07 08:11:58;;;;;;;;;;;;;;;13.42;81.98;100015.91;5067446;28;19989;-62
2023/04/07 08:14:23;;;;;;;;;;;;;;;13.57;81.17;100017.91;5070015;28;19936;-62
2023/04/07 08:16:49;;;;;;;;;;;;;;;13.61;79.53;100020.38;5069610;28;19930;-62
2023/04/07 08:19:14;;;;;;;;;;;;;;;13.95;78.76;100027.72;5064559;28;19994;-61
2023/04/07 08:21:39;;;;;;;;;;;;;;;14.10;78.98;100027.03;5068725;28;19974;-62
2023/04/07 08:24:06;;;;;;;;;;;;;;;14.35;78.96;100023.13;5062748;28;19935;-62
2023/04/07 08:26:31;;;;;;;;;;;;;;;14.53;77.25;100024.06;5048437;28;20572;-62
2023/04/07 08:28:57;;;;;;;;;;;;;;;14.69;76.44;100027.75;5056892;28;19956;-61
2023/04/07 08:31:22;;;;;;;;;;;;;;;14.49;76.89;100035.88;5063307;28;19934;-61
2023/04/07 08:33:52;;;;;;;;;;;;;;;14.45;78.18;100039.63;5050262;28;19980;-61
2023/04/07 08:36:17;;;;;;;;;;;;;;;14.55;78.20;100035.56;5060538;28;19935;-61
2023/04/07 08:38:43;;;;;;;;;;;;;;;14.63;77.39;100030.69;5061254;28;19930;-61
2023/04/07 08:41:12;;;;;;;;;;;;;;;14.51;75.95;100039.34;5067985;28;19916;-61
2023/04/07 08:43:38;;;;;;;;;;;;;;;14.61;76.88;100042.44;5058708;28;19928;-61
2023/04/07 08:46:04;;;;;;;;;;;;;;;14.70;75.98;100036.63;5062691;28;19942;-61
2023/04/07 08:48:32;;;;;;;;;;;;;;;14.77;75.94;100038.94;5067862;28;19935;-61
2023/04/07 08:51:00;;;;;;;;;;;;;;;14.72;71.94;100038.28;5055421;28;19943;-61
2023/04/07 08:53:29;;;;;;;;;;;;;;;14.67;73.06;100045.69;5049567;28;20380;-61
2023/04/07 08:55:55;;;;;;;;;;;;;;;15.00;73.24;100049.38;5051161;28;19975;-61
2023/04/07 08:58:20;;;;;;;;;;;;;;;14.87;71.78;100053.63;5049364;28;20300;-61
2023/04/07 09:00:47;;;;;;;;;;;;;;;14.84;71.68;100051.09;5061522;28;19930;-61
2023/04/07 09:03:13;;;;;;;;;;;;;;;14.23;72.06;100057.63;5069173;28;20008;-61
2023/04/07 09:05:38;;;;;;;;;;;;;;;14.29;72.86;100057.34;5062778;28;20020;-61
2023/04/07 09:08:04;;;;;;;;;;;;;;;14.55;74.12;100056.13;5058744;28;20485;-61
2023/04/07 09:10:30;;;;;;;;;;;;;;;14.79;73.21;100055.81;5068496;28;19936;-61
2023/04/07 09:12:57;;;;;;;;;;;;;;;15.00;71.84;100056.53;5064858;28;19939;-61
2023/04/07 09:15:22;;;;;;;;;;;;;;;14.99;72.50;100058.34;5054222;28;20287;-61
2023/04/07 09:17:48;;;;;;;;;;;;;;;15.11;71.42;100063.09;5068649;28;19943;-61
2023/04/07 09:20:13;;;;;;;;;;;;;;;15.30;70.78;100061.25;5068467;28;19939;-61
2023/04/07 09:22:38;;;;;;;;;;;;;;;15.42;71.61;100060.63;5065870;28;20754;-61
2023/04/07 09:25:13;;;;;;;;;;;;;;;15.54;70.77;100060.00;5068062;28;19943;-62
2023/04/07 09:27:38;;;;;;;;;;;;;;;15.69;70.60;100061.88;5066179;28;19953;-62
2023/04/07 09:30:14;;;;;;;;;;;;;;;15.83;67.08;100064.69;5048885;28;20305;-61
2023/04/07 09:32:40;;;;;;;;;;;;;;;15.92;65.69;100067.81;5055651;28;19921;-62
2023/04/07 09:35:05;;;;;;;;;;;;;;;16.31;66.50;100057.63;5067840;28;19987;-61
2023/04/07 09:37:31;;;;;;;;;;;;;;;16.23;66.67;100060.72;5059984;28;19916;-61
2023/04/07 09:39:56;;;;;;;;;;;;;;;16.69;65.90;100053.69;5051423;28;19933;-61
2023/04/07 09:42:22;;;;;;;;;;;;;;;17.06;65.00;100056.88;5065345;28;20392;-61
2023/04/07 09:44:47;;;;;;;;;;;;;;;17.34;63.40;100061.47;5065263;28;19933;-61
2023/04/07 09:47:12;;;;;;;;;;;;;;;17.44;62.97;100057.28;5064022;28;20022;-61
2023/04/07 09:49:49;;;;;;;;;;;;;;;17.71;62.12;100058.34;5061167;28;19946;-62
2023/04/07 09:52:16;;;;;;;;;;;;;;;17.67;60.58;100059.50;5062138;28;19999;-62
2023/04/07 09:54:41;;;;;;;;;;;;;;;17.98;60.48;100056.66;5060233;28;20061;-61
2023/04/07 09:57:07;;;;;;;;;;;;;;;18.38;58.22;100055.00;5062269;28;19936;-61
2023/04/07 09:59:34;;;;;;;;;;;;;;;18.37;58.23;100051.44;5055831;28;19988;-62
2023/04/07 10:02:00;;;;;;;;;;;;;;;18.12;57.25;100048.56;5066429;28;19931;-62
2023/04/07 10:04:26;;;;;;;;;;;;;;;18.08;58.16;100052.44;5065487;28;19920;-61
2023/04/07 10:06:53;;;;;;;;;;;;;;;17.97;59.53;100048.66;5066344;28;20052;-61
2023/04/07 10:09:18;;;;;;;;;;;;;;;18.28;59.94;100054.72;5061422;28;19945;-61
2023/04/07 10:11:44;;;;;;;;;;;;;;;18.51;57.95;100047.03;5066422;28;19947;-61
2023/04/07 10:14:10;;;;;;;;;;;;;;;18.17;57.20;100048.28;5061761;28;20017;-61
2023/04/07 10:16:38;;;;;;;;;;;;;;;17.75;58.09;100057.19;5065529;28;19916;-61
2023/04/07 10:19:05;;;;;;;;;;;;;;;17.68;57.71;100050.44;5064365;28;20312;-61
2023/04/07 10:21:31;;;;;;;;;;;;;;;17.70;58.38;100048.53;5065255;28;20462;-61
2023/04/07 10:23:57;;;;;;;;;;;;;;;17.56;56.88;100040.44;5062278;28;19965;-61
2023/04/07 10:26:25;;;;;;;;;;;;;;;17.55;57.34;100038.72;5065798;28;20023;-61
2023/04/07 10:28:52;;;;;;;;;;;;;;;17.87;56.94;100051.06;5062292;28;19993;-61
2023/04/07 10:31:19;;;;;;;;;;;;;;;17.41;54.51;100049.41;5045400;28;19913;-61
2023/04/07 10:33:45;;;;;;;;;;;;;;;17.54;57.13;100047.75;5065449;28;20395;-61
2023/04/07 10:36:11;;;;;;;;;;;;;;;18.03;53.98;100046.47;5065795;28;19928;-61
2023/04/07 10:38:36;;;;;;;;;;;;;;;18.23;53.32;100042.50;5063178;28;20308;-61
2023/04/07 10:41:21;;;;;;;;;;;;;;;18.52;53.14;100043.41;5053843;28;20035;-61
2023/04/07 10:43:47;;;;;;;;;;;;;;;18.19;53.15;100046.34;5054402;28;19931;-61
2023/04/07 10:46:12;;;;;;;;;;;;;;;18.54;53.27;100038.75;5063944;28;19932;-61
2023/04/07 10:48:37;;;;;;;;;;;;;;;18.85;52.47;100049.25;5066231;28;19966;-61
2023/04/07 10:51:07;;;;;;;;;;;;;;;19.13;52.33;100049.16;5067032;28;20041;-60
2023/04/07 10:53:35;;;;;;;;;;;;;;;19.67;51.25;100054.41;5064347;28;19934;-60
2023/04/07 10:56:01;;;;;;;;;;;;;;;20.17;49.16;100047.31;5048909;28;20025;-61
2023/04/07 10:58:30;;;;;;;;;;;;;;;20.03;46.28;100050.94;5063108;28;20447;-61
2023/04/07 11:01:11;;;;;;;;;;;;;;;20.78;47.38;100042.75;5066555;28;20501;-61
2023/04/07 11:03:40;;;;;;;;;;;;;;;21.10;47.59;100039.53;5066775;28;19945;-61
2023/04/07 11:06:07;;;;;;;;;;;;;;;21.53;46.53;100043.41;5065481;28;20692;-61
2023/04/07 11:08:32;;;;;;;;;;;;;;;21.49;44.82;100036.50;5050266;28;20023;-61
2023/04/07 11:10:58;;;;;;;;;;;;;;;21.21;43.09;100043.16;5047602;28;20018;-61
2023/04/07 11:13:23;;;;;;;;;;;;;;;20.61;43.95;100035.03;5065631;28;19984;-61
2023/04/07 11:15:49;;;;;;;;;;;;;;;20.20;45.59;100042.56;5070228;28;19966;-61
2023/04/07 11:18:16;;;;;;;;;;;;;;;20.27;44.67;100041.16;5054753;28;19934;-61
2023/04/07 11:20:42;;;;;;;;;;;;;;;20.51;43.98;100038.53;5055466;28;19945;-61
2023/04/07 11:23:08;;;;;;;;;;;;;;;20.61;43.96;100040.44;5071638;28;19947;-60
2023/04/07 11:25:34;;;;;;;;;;;;;;;20.20;44.15;100045.25;5071983;28;19972;-61
2023/04/07 11:28:00;;;;;;;;;;;;;;;20.15;45.58;100039.31;5071975;28;19974;-61
2023/04/07 11:30:25;;;;;;;;;;;;;;;20.12;47.13;100050.31;5066523;28;19983;-61
2023/04/07 11:32:50;;;;;;;;;;;;;;;19.71;46.96;100044.25;5065015;28;19951;-60
2023/04/07 11:35:16;;;;;;;;;;;;;;;19.84;47.35;100045.13;5068407;28;19947;-60
2023/04/07 11:37:41;;;;;;;;;;;;;;;20.02;46.16;100027.63;5072096;28;20012;-60
2023/04/07 11:40:07;;;;;;;;;;;;;;;20.57;44.01;100025.44;5071299;28;19978;-60
2023/04/07 11:42:32;;;;;;;;;;;;;;;20.79;44.74;100030.97;5069684;28;20470;-60
2023/04/07 11:44:57;;;;;;;;;;;;;;;20.67;43.76;100045.38;5070481;28;20321;-61
2023/04/07 11:47:32;;;;;;;;;;;;;;;20.25;45.01;100039.53;5065105;28;19958;-61
2023/04/07 11:49:57;;;;;;;;;;;;;;;20.30;45.88;100048.16;5069387;28;19920;-61
2023/04/07 11:52:24;;;;;;;;;;;;;;;19.99;44.66;100049.47;5069311;28;19916;-61
2023/04/07 11:54:49;;;;;;;;;;;;;;;19.82;47.06;100055.16;5065477;28;19962;-60
2023/04/07 11:57:23;;;;;;;;;;;;;;;19.38;47.43;100051.97;5071245;28;20011;-60
2023/04/07 11:59:48;;;;;;;;;;;;;;;18.94;47.53;100060.31;5067948;28;19948;-60
2023/04/07 12:02:29;;;;;;;;;;;;;;;18.96;47.42;100052.13;5071180;28;20457;-60
2023/04/07 12:04:56;;;;;;;;;;;;;;;18.84;49.00;100051.09;5067515;28;19920;-60
2023/04/07 12:07:21;;;;;;;;;;;;;;;18.77;48.91;100054.28;5061808;28;19956;-60
2023/04/07 12:09:46;;;;;;;;;;;;;;;18.68;49.31;100046.81;5060173;28;20508;-60
2023/04/07 12:12:12;;;;;;;;;;;;;;;18.60;50.06;100052.69;5060160;28;19970;-60
2023/04/07 12:14:37;;;;;;;;;;;;;;;19.22;48.23;100051.25;5066279;28;19979;-60
2023/04/07 12:17:02;;;;;;;;;;;;;;;19.65;45.85;100047.41;5067086;28;20287;-60
2023/04/07 12:19:29;;;;;;;;;;;;;;;20.24;46.66;100049.50;5072575;28;20389;-60
2023/04/07 12:21:54;;;;;;;;;;;;;;;20.47;45.16;100048.69;5072788;28;20017;-60
2023/04/07 12:24:20;;;;;;;;;;;;;;;20.43;45.77;100052.56;5075487;28;19920;-60
2023/04/07 12:26:46;;;;;;;;;;;;;;;19.56;45.54;100053.41;5066463;28;19992;-60
2023/04/07 12:29:12;;;;;;;;;;;;;;;19.86;45.63;100059.38;5058047;28;20636;-60
2023/04/07 12:31:37;;;;;;;;;;;;;;;20.32;47.00;100054.31;5069797;28;20012;-60
2023/04/07 12:34:02;;;;;;;;;;;;;;;20.35;44.96;100049.56;5065348;28;20399;-60
2023/04/07 12:36:28;;;;;;;;;;;;;;;20.85;45.17;100052.16;5073870;28;19945;-60